createdAt,value
2022-09-21T00:00:09.949Z,41.80
2022-09-21T00:02:40.968Z,41.80
2022-09-21T00:05:11.341Z,41.80
2022-09-21T00:07:42.602Z,41.80
2022-09-21T00:10:16.540Z,41.80
2022-09-21T00:12:48.358Z,41.70
2022-09-21T00:15:18.056Z,41.70
2022-09-21T00:17:49.237Z,41.80
2022-09-21T00:20:19.979Z,41.80
2022-09-21T00:22:50.973Z,41.70
2022-09-21T00:25:22.905Z,41.70
2022-09-21T00:27:53.185Z,41.80
2022-09-21T00:30:26.094Z,41.90
2022-09-21T00:32:57.185Z,41.80
2022-09-21T00:35:28.790Z,41.80
2022-09-21T00:38:04.702Z,41.80
2022-09-21T00:40:35.268Z,41.80
2022-09-21T00:43:17.826Z,41.80
2022-09-21T00:45:50.616Z,41.70
2022-09-21T00:48:22.204Z,41.70
2022-09-21T00:50:58.234Z,41.80
2022-09-21T00:53:28.490Z,42.40
2022-09-21T00:56:06.694Z,41.70
2022-09-21T00:58:49.918Z,41.70
2022-09-21T01:01:29.990Z,41.80
2022-09-21T01:04:01.825Z,41.80
2022-09-21T01:06:34.253Z,41.90
2022-09-21T01:09:05.772Z,41.80
2022-09-21T01:11:35.949Z,41.70
2022-09-21T01:14:32.033Z,41.80
2022-09-21T01:17:04.346Z,41.80
2022-09-21T01:19:57.392Z,41.80
2022-09-21T01:22:43.370Z,41.80
2022-09-21T01:25:37.150Z,41.80
2022-09-21T01:28:32.110Z,41.80
2022-09-21T01:31:10.634Z,42.50
2022-09-21T01:33:55.347Z,41.70
2022-09-21T01:36:29.940Z,41.80
2022-09-21T01:39:03.670Z,41.80
2022-09-21T01:41:39.450Z,42.40
2022-09-21T01:44:26.288Z,41.70
2022-09-21T01:46:57.318Z,41.80
2022-09-21T01:49:40.690Z,41.70
2022-09-21T01:52:23.895Z,41.80
2022-09-21T01:55:12.251Z,41.80
2022-09-21T01:57:49.175Z,41.80
2022-09-21T02:00:19.174Z,41.70
2022-09-21T02:02:58.917Z,42.40
2022-09-21T02:05:32.765Z,41.80
2022-09-21T02:08:07.738Z,41.70
2022-09-21T02:10:46.721Z,41.70
2022-09-21T02:13:20.447Z,41.80
2022-09-21T02:15:57.633Z,41.70
2022-09-21T02:19:01.809Z,41.70
2022-09-21T02:21:34.757Z,41.70
2022-09-21T02:24:47.919Z,41.80
2022-09-21T02:27:44.810Z,41.80
2022-09-21T02:30:33.187Z,41.80
2022-09-21T02:33:14.571Z,41.80
2022-09-21T02:35:57.195Z,41.90
2022-09-21T02:38:53.977Z,41.80
2022-09-21T02:41:38.219Z,41.70
2022-09-21T02:44:35.816Z,41.80
2022-09-21T02:47:31.739Z,41.80
2022-09-21T02:50:20.782Z,41.80
2022-09-21T02:52:50.747Z,41.80
2022-09-21T02:55:19.897Z,41.80
2022-09-21T02:57:52.688Z,41.80
2022-09-21T03:00:24.851Z,41.80
2022-09-21T03:02:55.105Z,41.80
2022-09-21T03:05:29.966Z,41.80
2022-09-21T03:07:58.439Z,41.80
2022-09-21T03:10:30.225Z,41.80
2022-09-21T03:13:07.465Z,41.80
2022-09-21T03:15:38.920Z,41.80
2022-09-21T03:18:15.040Z,41.80
2022-09-21T03:20:49.545Z,41.80
2022-09-21T03:23:18.353Z,41.80
2022-09-21T03:25:49.640Z,41.90
2022-09-21T03:28:21.143Z,41.80
2022-09-21T03:30:54.762Z,41.80
2022-09-21T03:33:25.260Z,41.80
2022-09-21T03:35:58.019Z,41.80
2022-09-21T03:38:27.428Z,41.80
2022-09-21T03:40:59.012Z,41.90
2022-09-21T03:43:30.608Z,41.80
2022-09-21T03:46:01.561Z,41.80
2022-09-21T03:48:33.405Z,41.80
2022-09-21T03:51:04.616Z,41.80
2022-09-21T03:53:36.685Z,41.80
2022-09-21T03:56:08.158Z,41.80
2022-09-21T03:58:41.062Z,41.80
2022-09-21T04:01:10.934Z,41.80
2022-09-21T04:03:43.023Z,41.80
2022-09-21T04:06:24.788Z,41.80
2022-09-21T04:08:56.800Z,41.80
2022-09-21T04:11:24.891Z,41.70
2022-09-21T04:13:58.340Z,41.70
2022-09-21T04:16:28.834Z,41.80
2022-09-21T04:18:59.263Z,41.70
2022-09-21T04:21:30.828Z,41.70
2022-09-21T04:24:02.825Z,41.70
2022-09-21T04:26:35.203Z,41.80
2022-09-21T04:29:14.064Z,41.80
2022-09-21T04:31:45.130Z,41.70
2022-09-21T04:34:14.895Z,41.70
2022-09-21T04:36:44.198Z,41.70
2022-09-21T04:39:12.111Z,41.80
2022-09-21T04:41:40.184Z,41.70
2022-09-21T04:44:07.675Z,41.70
2022-09-21T04:46:35.829Z,41.70
2022-09-21T04:49:04.432Z,41.70
2022-09-21T04:51:34.986Z,41.80
2022-09-21T04:54:05.507Z,41.70
2022-09-21T04:56:37.149Z,42.40
2022-09-21T04:59:08.630Z,41.70
2022-09-21T05:01:35.682Z,41.80
2022-09-21T05:04:04.986Z,41.80
2022-09-21T05:06:35.817Z,41.80
2022-09-21T05:09:23.965Z,41.60
2022-09-21T05:11:53.570Z,41.40
2022-09-21T05:14:32.699Z,41.20
2022-09-21T05:17:09.194Z,41.10
2022-09-21T05:19:37.187Z,41.00
2022-09-21T05:22:08.274Z,40.90
2022-09-21T05:24:39.036Z,40.90
2022-09-21T05:27:07.409Z,40.80
2022-09-21T05:29:36.312Z,40.90
2022-09-21T05:32:28.967Z,40.90
2022-09-21T05:35:26.772Z,40.70
2022-09-21T05:38:09.643Z,40.70
2022-09-21T05:40:40.723Z,40.70
2022-09-21T05:43:14.107Z,40.80
2022-09-21T05:45:51.813Z,40.80
2022-09-21T05:48:28.041Z,40.90
2022-09-21T05:51:10.362Z,40.90
2022-09-21T05:53:57.302Z,40.80
2022-09-21T05:56:51.676Z,40.80
2022-09-21T05:59:52.851Z,40.90
2022-09-21T06:02:47.151Z,40.90
2022-09-21T06:05:19.760Z,40.90
2022-09-21T06:07:57.717Z,40.90
2022-09-21T06:10:38.789Z,40.80
2022-09-21T06:13:09.622Z,40.80
2022-09-21T06:15:49.515Z,40.80
2022-09-21T06:18:19.406Z,41.60
2022-09-21T06:20:51.319Z,40.90
2022-09-21T06:23:18.624Z,40.90
2022-09-21T06:25:58.527Z,40.70
2022-09-21T06:28:27.310Z,40.80
2022-09-21T06:33:54.130Z,40.60
2022-09-21T06:36:25.724Z,40.60
2022-09-21T06:38:59.858Z,40.50
2022-09-21T06:41:29.179Z,40.50
2022-09-21T06:43:58.632Z,40.40
2022-09-21T06:46:28.121Z,40.50
2022-09-21T06:48:58.994Z,40.50
2022-09-21T06:51:25.275Z,40.50
2022-09-21T06:54:00.141Z,40.50
2022-09-21T06:56:27.723Z,40.60
2022-09-21T06:59:06.651Z,40.40
2022-09-21T07:01:38.024Z,40.40
2022-09-21T07:04:11.637Z,40.40
2022-09-21T07:06:41.542Z,40.50
2022-09-21T07:12:02.838Z,40.40
2022-09-21T07:14:41.158Z,40.50
2022-09-21T07:17:15.612Z,40.40
2022-09-21T07:19:49.258Z,41.30
2022-09-21T07:22:18.243Z,40.60
2022-09-21T07:24:45.143Z,40.60
2022-09-21T07:27:23.761Z,40.50
2022-09-21T07:29:59.145Z,40.60
2022-09-21T07:32:46.860Z,40.60
2022-09-21T07:35:16.426Z,40.60
2022-09-21T07:37:47.459Z,40.60
2022-09-21T07:40:14.466Z,40.60
2022-09-21T07:42:48.797Z,40.60
2022-09-21T07:45:26.778Z,40.60
2022-09-21T07:47:59.701Z,40.60
2022-09-21T07:50:36.971Z,40.70
2022-09-21T07:53:12.253Z,41.70
2022-09-21T07:55:42.433Z,41.20
2022-09-21T07:58:34.257Z,41.20
2022-09-21T08:01:10.598Z,40.90
2022-09-21T08:03:42.419Z,40.90
2022-09-21T08:06:19.521Z,40.80
2022-09-21T08:08:57.960Z,40.80
2022-09-21T08:11:32.898Z,40.80
2022-09-21T08:14:01.258Z,40.90
2022-09-21T08:16:30.305Z,40.80
2022-09-21T08:19:03.804Z,40.90
2022-09-21T08:21:37.136Z,40.80
2022-09-21T08:24:11.759Z,40.90
2022-09-21T08:26:52.804Z,40.90
2022-09-21T08:29:29.643Z,41.20
2022-09-21T08:31:58.856Z,41.10
2022-09-21T08:34:28.218Z,41.10
2022-09-21T08:37:02.809Z,41.10
2022-09-21T08:39:28.853Z,41.10
2022-09-21T08:42:25.687Z,41.20
2022-09-21T08:45:07.322Z,41.10
2022-09-21T08:47:52.247Z,41.20
2022-09-21T08:50:38.790Z,41.20
2022-09-21T08:53:29.235Z,41.30
2022-09-21T08:55:56.947Z,41.30
2022-09-21T08:58:31.497Z,41.30
2022-09-21T09:01:31.987Z,41.40
2022-09-21T09:04:46.631Z,41.40
2022-09-21T09:07:38.213Z,41.40
2022-09-21T09:10:43.014Z,41.50
2022-09-21T09:13:51.323Z,41.60
2022-09-21T09:16:31.810Z,41.70
2022-09-21T09:19:32.647Z,41.70
2022-09-21T09:22:05.729Z,41.70
2022-09-21T09:24:50.594Z,41.70
2022-09-21T09:27:37.080Z,41.80
2022-09-21T09:30:29.534Z,41.90
2022-09-21T09:33:51.527Z,42.00
2022-09-21T09:36:34.743Z,42.10
2022-09-21T09:39:22.513Z,42.20
2022-09-21T09:42:23.438Z,42.20
2022-09-21T09:45:09.972Z,42.20
2022-09-21T09:47:49.842Z,42.20
2022-09-21T09:50:22.280Z,42.20
2022-09-21T09:52:58.063Z,42.20
2022-09-21T09:55:45.514Z,42.20
2022-09-21T09:58:26.108Z,42.20
2022-09-21T10:00:58.963Z,42.20
2022-09-21T10:03:36.275Z,42.20
2022-09-21T10:06:15.741Z,42.20
2022-09-21T10:08:50.088Z,42.90
2022-09-21T10:11:22.590Z,42.20
2022-09-21T10:13:56.247Z,42.40
2022-09-21T10:16:30.595Z,42.30
2022-09-21T10:19:02.349Z,42.30
2022-09-21T10:21:51.281Z,42.30
2022-09-21T10:24:29.467Z,42.40
2022-09-21T10:27:28.038Z,42.30
2022-09-21T10:30:07.798Z,42.30
2022-09-21T10:33:00.035Z,42.40
2022-09-21T10:35:27.291Z,42.40
2022-09-21T10:38:22.415Z,42.40
2022-09-21T10:40:53.201Z,42.40
2022-09-21T10:43:42.605Z,43.10
2022-09-21T10:46:13.212Z,42.60
2022-09-21T10:48:48.488Z,42.50
2022-09-21T10:51:36.040Z,42.50
2022-09-21T10:54:13.743Z,42.50
2022-09-21T10:56:56.114Z,42.60
2022-09-21T10:59:33.748Z,43.20
2022-09-21T11:02:27.960Z,42.70
2022-09-21T11:05:06.749Z,42.60
2022-09-21T11:07:53.760Z,42.70
2022-09-21T11:10:34.643Z,42.70
2022-09-21T11:13:34.619Z,42.70
2022-09-21T11:16:20.968Z,42.70
2022-09-21T11:19:19.354Z,42.70
2022-09-21T11:22:07.908Z,42.60
2022-09-21T11:25:16.902Z,42.70
2022-09-21T11:27:54.045Z,42.60
2022-09-21T11:30:29.818Z,42.60
2022-09-21T11:33:24.298Z,42.70
2022-09-21T11:36:11.610Z,42.60
2022-09-21T11:38:58.071Z,42.60
2022-09-21T11:41:40.193Z,42.50
2022-09-21T11:44:19.344Z,42.40
2022-09-21T11:46:58.608Z,42.30
2022-09-21T11:50:03.112Z,42.30
2022-09-21T11:53:18.657Z,42.30
2022-09-21T11:56:00.140Z,42.30
2022-09-21T11:58:43.050Z,42.40
2022-09-21T12:01:22.982Z,42.40
2022-09-21T12:04:22.001Z,42.30
2022-09-21T12:07:29.901Z,42.30
2022-09-21T12:10:22.405Z,42.20
2022-09-21T12:13:08.420Z,42.20
2022-09-21T12:16:02.487Z,42.20
2022-09-21T12:18:59.217Z,42.20
2022-09-21T12:22:07.233Z,42.20
2022-09-21T12:24:45.587Z,42.10
2022-09-21T12:27:36.469Z,42.10
2022-09-21T12:30:21.168Z,42.00
2022-09-21T12:33:23.063Z,42.00
2022-09-21T12:36:48.473Z,42.00
2022-09-21T12:39:42.912Z,42.00
2022-09-21T12:42:41.754Z,42.00
2022-09-21T12:45:46.253Z,41.90
2022-09-21T12:48:44.269Z,41.90
2022-09-21T12:51:28.611Z,41.90
2022-09-21T12:54:05.476Z,41.90
2022-09-21T12:56:49.244Z,41.90
2022-09-21T12:59:31.840Z,41.90
2022-09-21T13:02:26.100Z,41.80
2022-09-21T13:05:35.105Z,41.80
2022-09-21T13:08:30.434Z,41.80
2022-09-21T13:11:11.419Z,41.70
2022-09-21T13:13:45.097Z,41.60
2022-09-21T13:16:35.488Z,41.70
2022-09-21T13:19:22.064Z,41.70
2022-09-21T13:22:23.734Z,41.70
2022-09-21T13:25:06.462Z,41.80
2022-09-21T13:28:04.211Z,41.60
2022-09-21T13:30:51.337Z,41.40
2022-09-21T13:33:30.044Z,41.40
2022-09-21T13:36:10.874Z,41.40
2022-09-21T13:39:01.770Z,41.70
2022-09-21T13:42:01.808Z,41.50
2022-09-21T13:44:45.610Z,41.30
2022-09-21T13:47:17.448Z,41.20
2022-09-21T13:50:00.636Z,41.20
2022-09-21T13:52:41.324Z,41.10
2022-09-21T13:55:38.539Z,41.00
2022-09-21T13:58:32.416Z,40.90
2022-09-21T14:01:46.364Z,40.80
2022-09-21T14:04:29.928Z,40.90
2022-09-21T14:06:57.673Z,40.90
2022-09-21T14:10:05.215Z,40.70
2022-09-21T14:12:45.773Z,40.80
2022-09-21T14:15:26.230Z,40.60
2022-09-21T14:18:19.100Z,40.60
2022-09-21T14:21:28.262Z,40.60
2022-09-21T14:24:07.318Z,40.60
2022-09-21T14:27:04.184Z,40.50
2022-09-21T14:30:07.622Z,40.50
2022-09-21T14:32:57.511Z,40.50
2022-09-21T14:35:33.665Z,40.40
2022-09-21T14:38:23.314Z,40.40
2022-09-21T14:40:52.049Z,40.40
2022-09-21T14:43:35.419Z,40.30
2022-09-21T14:46:21.723Z,40.20
2022-09-21T14:49:24.616Z,40.20
2022-09-21T14:52:18.091Z,40.20
2022-09-21T14:55:11.765Z,40.20
2022-09-21T14:57:58.385Z,40.20
2022-09-21T15:00:53.726Z,40.20
2022-09-21T15:03:39.768Z,40.10
2022-09-21T15:06:56.123Z,40.10
2022-09-21T15:09:47.875Z,40.10
2022-09-21T15:12:30.597Z,40.10
2022-09-21T15:15:32.509Z,40.10
2022-09-21T15:18:03.602Z,40.00
2022-09-21T15:20:36.838Z,39.90
2022-09-21T15:23:21.431Z,40.00
2022-09-21T15:26:25.863Z,39.80
2022-09-21T15:29:20.926Z,39.80
2022-09-21T15:31:49.423Z,39.80
2022-09-21T15:34:26.429Z,39.80
2022-09-21T15:37:16.286Z,39.70
2022-09-21T15:39:45.529Z,39.80
2022-09-21T15:42:24.430Z,39.60
2022-09-21T15:45:20.579Z,39.70
2022-09-21T15:47:51.557Z,39.70
2022-09-21T15:50:23.139Z,39.70
2022-09-21T15:53:02.161Z,39.70
2022-09-21T15:55:35.676Z,39.50
2022-09-21T15:58:13.927Z,39.50
2022-09-21T16:00:54.248Z,40.10
2022-09-21T16:03:25.222Z,39.50
2022-09-21T16:05:58.846Z,39.50
2022-09-21T16:08:36.398Z,39.50
2022-09-21T16:11:29.079Z,39.50
2022-09-21T16:14:30.873Z,39.50
2022-09-21T16:17:18.020Z,39.50
2022-09-21T16:19:56.825Z,39.50
2022-09-21T16:22:29.828Z,39.50
2022-09-21T16:25:10.919Z,39.50
2022-09-21T16:27:53.633Z,39.50
2022-09-21T16:30:46.294Z,39.50
2022-09-21T16:33:43.521Z,39.50
2022-09-21T16:36:29.748Z,39.40
2022-09-21T16:38:57.213Z,39.40
2022-09-21T16:41:43.739Z,39.40
2022-09-21T16:44:47.915Z,39.40
2022-09-21T16:47:30.372Z,39.40
2022-09-21T16:50:06.957Z,39.30
2022-09-21T16:52:38.479Z,39.30
2022-09-21T16:55:13.113Z,39.30
2022-09-21T16:57:44.712Z,39.20
2022-09-21T17:00:17.248Z,39.20
2022-09-21T17:02:52.773Z,39.20
2022-09-21T17:05:39.443Z,39.90
2022-09-21T17:08:11.319Z,39.90
2022-09-21T17:10:49.715Z,39.90
2022-09-21T17:13:21.142Z,40.00
2022-09-21T17:15:53.959Z,40.10
2022-09-21T17:18:25.616Z,40.00
2022-09-21T17:21:04.589Z,40.00
2022-09-21T17:23:34.936Z,40.10
2022-09-21T17:26:23.021Z,40.10
2022-09-21T17:28:53.717Z,40.10
2022-09-21T17:31:25.211Z,40.10
2022-09-21T17:33:58.100Z,40.20
2022-09-21T17:36:30.912Z,40.20
2022-09-21T17:38:59.798Z,40.10
2022-09-21T17:41:58.023Z,40.20
2022-09-21T17:44:52.644Z,40.20
2022-09-21T17:47:34.348Z,40.20
2022-09-21T17:50:29.145Z,40.20
2022-09-21T17:53:23.273Z,40.20
2022-09-21T17:56:05.548Z,40.30
2022-09-21T17:59:00.443Z,40.30
2022-09-21T18:01:46.042Z,40.20
2022-09-21T18:04:17.985Z,40.40
2022-09-21T18:06:48.806Z,40.30
2022-09-21T18:09:25.507Z,40.30
2022-09-21T18:13:05.557Z,40.30
2022-09-21T18:16:06.572Z,40.40
2022-09-21T18:19:20.264Z,40.30
2022-09-21T18:21:55.607Z,40.40
2022-09-21T18:24:35.047Z,40.30
2022-09-21T18:27:06.245Z,40.40
2022-09-21T18:29:45.219Z,41.10
2022-09-21T18:32:32.367Z,40.30
2022-09-21T18:35:14.693Z,40.30
2022-09-21T18:38:15.997Z,40.30
2022-09-21T18:41:30.096Z,40.40
2022-09-21T18:44:24.213Z,40.40
2022-09-21T18:47:10.540Z,40.40
2022-09-21T18:50:13.494Z,40.40
2022-09-21T18:53:22.189Z,40.40
2022-09-21T18:55:53.679Z,40.40
2022-09-21T18:58:25.193Z,40.40
2022-09-21T19:00:57.118Z,40.40
2022-09-21T19:03:28.657Z,40.40
2022-09-21T19:06:37.365Z,41.10
2022-09-21T19:09:12.851Z,40.40
2022-09-21T19:11:53.149Z,40.50
2022-09-21T19:14:42.607Z,40.50
2022-09-21T19:17:21.361Z,40.40
2022-09-21T19:20:30.852Z,40.50
2022-09-21T19:23:32.841Z,40.50
2022-09-21T19:26:27.064Z,40.50
2022-09-21T19:29:29.718Z,40.50
2022-09-21T19:32:08.197Z,40.60
2022-09-21T19:34:47.092Z,40.50
2022-09-21T19:37:16.462Z,40.50
2022-09-21T19:39:50.249Z,40.50
2022-09-21T19:42:52.275Z,40.60
2022-09-21T19:45:52.175Z,40.50
2022-09-21T19:48:25.148Z,40.60
2022-09-21T19:51:03.788Z,40.60
2022-09-21T19:53:55.337Z,40.60
2022-09-21T19:56:55.297Z,40.50
2022-09-21T19:59:48.214Z,40.60
2022-09-21T20:02:27.247Z,40.60
2022-09-21T20:05:30.204Z,40.60
2022-09-21T20:08:14.926Z,40.60
2022-09-21T20:11:01.806Z,40.60
2022-09-21T20:13:49.256Z,40.60
2022-09-21T20:16:50.821Z,40.60
2022-09-21T20:19:46.890Z,40.60
2022-09-21T20:22:24.833Z,40.60
2022-09-21T20:24:59.380Z,40.60
2022-09-21T20:27:53.108Z,40.60
2022-09-21T20:30:36.232Z,40.60
2022-09-21T20:33:07.623Z,40.60
2022-09-21T20:35:38.191Z,40.70
2022-09-21T20:38:10.377Z,40.70
2022-09-21T20:40:48.211Z,40.70
2022-09-21T20:43:24.043Z,40.60
2022-09-21T20:45:55.617Z,40.60
2022-09-21T20:48:24.710Z,40.70
2022-09-21T20:51:01.805Z,40.70
2022-09-21T20:53:34.476Z,40.60
2022-09-21T20:56:06.428Z,40.60
2022-09-21T20:58:34.712Z,40.70
2022-09-21T21:01:10.007Z,40.70
2022-09-21T21:03:48.410Z,40.70
2022-09-21T21:06:20.115Z,40.70
2022-09-21T21:08:52.466Z,40.70
2022-09-21T21:11:24.287Z,40.70
2022-09-21T21:13:54.744Z,40.70
2022-09-21T21:16:26.727Z,40.70
2022-09-21T21:19:05.327Z,40.60
2022-09-21T21:21:34.987Z,41.30
2022-09-21T21:24:30.332Z,40.80
2022-09-21T21:27:09.256Z,40.60
2022-09-21T21:29:40.375Z,40.70
2022-09-21T21:32:13.087Z,40.80
2022-09-21T21:34:43.772Z,40.70
2022-09-21T21:37:16.891Z,40.70
2022-09-21T21:39:47.626Z,40.80
2022-09-21T21:42:21.252Z,40.80
2022-09-21T21:44:57.925Z,40.80
2022-09-21T21:47:45.610Z,40.80
2022-09-21T21:50:20.017Z,40.70
2022-09-21T21:52:50.619Z,40.80
2022-09-21T21:55:19.569Z,40.70
2022-09-21T21:57:51.381Z,40.90
2022-09-21T22:00:26.716Z,40.80
2022-09-21T22:03:03.002Z,40.70
2022-09-21T22:05:31.737Z,40.90
2022-09-21T22:08:01.710Z,40.80
2022-09-21T22:10:32.596Z,40.90
2022-09-21T22:13:08.115Z,40.80
2022-09-21T22:15:36.656Z,40.80
2022-09-21T22:18:04.363Z,40.80
2022-09-21T22:20:43.080Z,40.80
2022-09-21T22:23:16.976Z,40.80
2022-09-21T22:25:48.176Z,40.80
2022-09-21T22:28:21.938Z,40.90
2022-09-21T22:30:50.598Z,40.80
2022-09-21T22:33:31.184Z,40.80
2022-09-21T22:36:22.194Z,40.80
2022-09-21T22:38:55.612Z,40.80
2022-09-21T22:41:41.432Z,40.90
2022-09-21T22:44:08.525Z,40.80
2022-09-21T22:46:43.164Z,40.90
2022-09-21T22:49:15.004Z,40.80
2022-09-21T22:51:45.452Z,40.80
2022-09-21T22:54:25.441Z,40.90
2022-09-21T22:57:02.066Z,40.80
2022-09-21T22:59:34.919Z,40.80
2022-09-21T23:02:05.125Z,40.90
2022-09-21T23:04:33.005Z,40.90
2022-09-21T23:07:05.141Z,40.90
2022-09-21T23:09:37.678Z,40.80
2022-09-21T23:12:07.951Z,40.90
2022-09-21T23:14:37.886Z,40.90
2022-09-21T23:17:09.359Z,40.90
2022-09-21T23:19:40.406Z,40.90
2022-09-21T23:22:10.368Z,40.80
2022-09-21T23:24:39.520Z,40.90
2022-09-21T23:27:08.358Z,40.90
2022-09-21T23:29:40.205Z,40.90
2022-09-21T23:32:11.597Z,40.90
2022-09-21T23:34:42.416Z,41.00
2022-09-21T23:37:22.050Z,40.80
2022-09-21T23:39:54.153Z,40.90
2022-09-21T23:42:25.927Z,40.80
2022-09-21T23:44:57.336Z,40.80
2022-09-21T23:47:29.198Z,40.80
2022-09-21T23:50:01.681Z,40.90
2022-09-21T23:52:34.952Z,40.80
2022-09-21T23:55:09.494Z,40.90
2022-09-21T23:57:41.270Z,40.90
